createdAt,value
2023-02-06T00:00:12.358Z,21.20
2023-02-06T00:02:50.039Z,12.40
2023-02-06T00:05:28.081Z,18.80
2023-02-06T00:08:07.521Z,18.80
2023-02-06T00:10:46.076Z,19.40
2023-02-06T00:13:21.507Z,17.70
2023-02-06T00:15:59.869Z,18.80
2023-02-06T00:18:37.599Z,22.30
2023-02-06T00:21:15.582Z,23.70
2023-02-06T00:23:53.968Z,25.00
2023-02-06T00:26:33.338Z,22.70
2023-02-06T00:29:13.329Z,20.10
2023-02-06T00:31:51.346Z,18.50
2023-02-06T00:34:29.217Z,22.10
2023-02-06T00:37:07.771Z,20.80
2023-02-06T00:39:54.376Z,20.30
2023-02-06T00:42:32.756Z,20.30
2023-02-06T00:45:11.697Z,18.50
2023-02-06T00:47:49.747Z,18.00
2023-02-06T00:50:20.372Z,18.70
2023-02-06T00:52:54.635Z,22.20
2023-02-06T00:55:33.641Z,23.50
2023-02-06T00:58:13.450Z,24.30
2023-02-06T01:00:51.329Z,22.40
2023-02-06T01:03:30.118Z,16.10
2023-02-06T01:06:09.929Z,21.80
2023-02-06T01:08:48.014Z,20.60
2023-02-06T01:11:27.822Z,22.20
2023-02-06T01:15:28.637Z,21.30
2023-02-06T01:18:06.932Z,17.40
2023-02-06T01:20:44.901Z,13.40
2023-02-06T01:23:15.724Z,26.10
2023-02-06T01:25:54.565Z,24.30
2023-02-06T01:28:25.685Z,21.80
2023-02-06T01:30:57.108Z,22.20
2023-02-06T01:33:35.573Z,20.80
2023-02-06T01:36:13.711Z,21.00
2023-02-06T01:38:52.055Z,20.30
2023-02-06T01:41:29.904Z,22.00
2023-02-06T01:44:23.272Z,18.10
2023-02-06T01:46:59.060Z,11.50
2023-02-06T01:52:31.981Z,11.80
2023-02-06T01:55:10.820Z,21.90
2023-02-06T01:57:49.387Z,22.60
2023-02-06T02:00:21.083Z,21.70
2023-02-06T02:02:57.009Z,23.30
2023-02-06T02:05:36.287Z,25.40
2023-02-06T02:08:27.369Z,22.30
2023-02-06T02:11:02.762Z,19.40
2023-02-06T02:13:38.882Z,21.30
2023-02-06T02:16:45.038Z,21.00
2023-02-06T02:19:42.617Z,23.30
2023-02-06T02:22:57.990Z,24.90
2023-02-06T02:26:17.096Z,25.90
2023-02-06T02:29:34.594Z,24.40
2023-02-06T02:32:40.758Z,21.90
2023-02-06T02:35:53.766Z,22.10
2023-02-06T02:38:46.016Z,21.00
2023-02-06T02:41:35.201Z,21.80
2023-02-06T02:44:23.336Z,20.00
2023-02-06T02:46:59.731Z,13.00
2023-02-06T02:52:13.103Z,24.10
2023-02-06T02:54:50.556Z,25.90
2023-02-06T02:57:31.518Z,22.70
2023-02-06T03:00:10.433Z,21.20
2023-02-06T03:02:50.903Z,21.90
2023-02-06T03:05:29.834Z,21.90
2023-02-06T03:08:46.520Z,24.50
2023-02-06T03:11:26.172Z,20.20
2023-02-06T03:14:16.697Z,22.80
2023-02-06T03:17:00.254Z,22.80
2023-02-06T03:19:42.412Z,22.00
2023-02-06T03:22:18.457Z,22.20
2023-02-06T03:24:56.524Z,19.10
2023-02-06T03:27:35.996Z,23.50
2023-02-06T03:30:19.057Z,21.70
2023-02-06T03:33:03.466Z,25.50
2023-02-06T03:35:39.314Z,28.50
2023-02-06T03:38:16.930Z,26.10
2023-02-06T03:40:57.262Z,25.00
2023-02-06T03:43:36.166Z,24.50
2023-02-06T03:46:17.092Z,23.70
2023-02-06T03:48:57.545Z,22.10
2023-02-06T03:51:48.752Z,25.70
2023-02-06T03:54:24.333Z,23.60
2023-02-06T03:57:02.237Z,22.50
2023-02-06T03:59:37.953Z,21.90
2023-02-06T04:02:16.935Z,22.30
2023-02-06T04:04:55.111Z,27.80
2023-02-06T04:07:36.377Z,28.50
2023-02-06T04:10:15.119Z,26.10
2023-02-06T04:12:53.550Z,26.20
2023-02-06T04:15:24.315Z,24.20
2023-02-06T04:18:00.505Z,17.90
2023-02-06T04:20:41.350Z,25.10
2023-02-06T04:23:19.303Z,23.80
2023-02-06T04:25:57.448Z,24.10
2023-02-06T04:28:35.737Z,23.40
2023-02-06T04:31:06.130Z,25.80
2023-02-06T04:33:38.375Z,28.80
2023-02-06T04:36:17.233Z,27.80
2023-02-06T04:38:55.259Z,25.00
2023-02-06T04:41:26.561Z,25.60
2023-02-06T04:44:05.122Z,24.80
2023-02-06T04:46:41.146Z,25.40
2023-02-06T04:49:19.237Z,25.70
2023-02-06T04:51:56.965Z,23.40
2023-02-06T04:54:35.688Z,25.00
2023-02-06T04:57:06.282Z,27.10
2023-02-06T04:59:40.493Z,23.40
2023-02-06T05:02:19.578Z,24.60
2023-02-06T05:04:57.408Z,24.20
2023-02-06T05:07:35.264Z,28.00
2023-02-06T05:10:15.129Z,27.70
2023-02-06T05:12:52.779Z,29.00
2023-02-06T05:15:30.175Z,26.50
2023-02-06T05:18:08.825Z,25.20
2023-02-06T05:20:46.532Z,22.20
2023-02-06T05:23:25.144Z,24.10
2023-02-06T05:26:03.421Z,23.60
2023-02-06T05:28:40.630Z,28.40
2023-02-06T05:31:11.411Z,21.00
2023-02-06T05:35:39.615Z,27.40
2023-02-06T05:38:17.913Z,28.10
2023-02-06T05:40:57.024Z,31.90
2023-02-06T05:47:01.042Z,27.30
2023-02-06T05:49:40.229Z,28.30
2023-02-06T05:52:17.844Z,26.40
2023-02-06T05:54:55.330Z,25.40
2023-02-06T05:57:32.454Z,25.90
2023-02-06T06:00:11.532Z,27.30
2023-02-06T06:02:42.884Z,28.40
2023-02-06T06:05:21.779Z,25.10
2023-02-06T06:11:35.619Z,24.90
2023-02-06T06:16:58.765Z,30.60
2023-02-06T06:19:34.739Z,28.90
2023-02-06T06:22:11.919Z,24.30
2023-02-06T06:26:19.616Z,24.10
2023-02-06T06:28:58.223Z,23.20
2023-02-06T06:31:35.639Z,24.20
2023-02-06T06:34:13.567Z,22.10
2023-02-06T06:36:52.183Z,19.40
2023-02-06T06:39:30.445Z,17.60
2023-02-06T06:42:09.343Z,10.80
2023-02-06T06:44:46.665Z,24.90
2023-02-06T06:47:22.425Z,23.70
2023-02-06T06:50:01.454Z,24.60
2023-02-06T06:52:38.995Z,24.20
2023-02-06T06:55:16.102Z,24.30
2023-02-06T06:57:48.159Z,22.60
2023-02-06T07:00:24.063Z,23.40
2023-02-06T07:03:02.609Z,22.90
2023-02-06T07:05:42.368Z,14.50
2023-02-06T07:08:21.224Z,18.20
2023-02-06T07:10:59.968Z,26.30
2023-02-06T07:13:37.109Z,23.80
2023-02-06T07:16:16.076Z,27.50
2023-02-06T07:18:49.231Z,20.40
2023-02-06T07:21:28.246Z,30.60
2023-02-06T07:24:08.622Z,28.10
2023-02-06T07:26:46.363Z,28.80
2023-02-06T07:29:24.666Z,25.20
2023-02-06T07:32:02.627Z,22.20
2023-02-06T07:34:41.013Z,19.30
2023-02-06T07:37:18.947Z,22.70
2023-02-06T07:39:51.118Z,11.20
2023-02-06T07:42:27.842Z,20.20
2023-02-06T07:45:05.382Z,18.60
2023-02-06T07:47:44.315Z,11.70
2023-02-06T07:50:22.907Z,12.80
2023-02-06T07:53:00.640Z,24.40
2023-02-06T07:55:39.679Z,21.60
2023-02-06T07:58:17.400Z,20.60
2023-02-06T08:00:55.750Z,20.70
2023-02-06T08:03:35.762Z,20.10
2023-02-06T08:06:18.109Z,15.70
2023-02-06T08:11:38.121Z,13.60
2023-02-06T08:14:08.795Z,13.00
2023-02-06T08:16:46.821Z,17.30
2023-02-06T08:19:24.542Z,19.80
2023-02-06T08:22:02.282Z,23.00
2023-02-06T08:24:39.752Z,15.20
2023-02-06T08:27:10.414Z,19.20
2023-02-06T08:29:46.077Z,19.90
2023-02-06T08:32:24.403Z,11.80
2023-02-06T08:35:02.470Z,20.10
2023-02-06T08:37:41.466Z,12.20
2023-02-06T08:40:19.412Z,17.10
2023-02-06T08:42:56.942Z,14.80
2023-02-06T08:45:34.853Z,17.50
2023-02-06T08:48:13.522Z,17.00
2023-02-06T08:50:51.112Z,11.40
2023-02-06T08:53:31.330Z,10.10
2023-02-06T08:56:16.838Z,13.00
2023-02-06T08:58:54.910Z,16.20
2023-02-06T09:01:35.724Z,13.90
2023-02-06T09:04:15.845Z,13.30
2023-02-06T09:06:54.783Z,15.00
2023-02-06T09:09:34.204Z,15.30
2023-02-06T09:12:13.237Z,14.60
2023-02-06T09:14:50.827Z,13.50
2023-02-06T09:17:32.256Z,11.60
2023-02-06T09:20:11.616Z,13.80
2023-02-06T09:22:49.638Z,15.00
2023-02-06T09:25:27.732Z,15.40
2023-02-06T09:28:06.132Z,15.10
2023-02-06T09:30:45.529Z,15.00
2023-02-06T09:33:24.408Z,15.70
2023-02-06T09:36:17.107Z,16.10
2023-02-06T09:38:58.601Z,14.60
2023-02-06T09:41:48.246Z,15.30
2023-02-06T09:44:58.974Z,13.80
2023-02-06T09:47:48.514Z,14.80
2023-02-06T09:50:25.979Z,16.10
2023-02-06T09:53:08.939Z,15.10
2023-02-06T09:55:53.264Z,8.10
2023-02-06T09:58:51.126Z,13.10
2023-02-06T10:01:39.484Z,10.20
2023-02-06T10:04:39.881Z,15.60
2023-02-06T10:08:11.937Z,15.10
2023-02-06T10:11:02.874Z,12.30
2023-02-06T10:13:50.551Z,8.20
2023-02-06T10:16:55.467Z,14.20
2023-02-06T10:20:17.272Z,15.40
2023-02-06T10:23:39.262Z,14.00
2023-02-06T10:26:20.655Z,14.60
2023-02-06T10:29:05.241Z,14.60
2023-02-06T10:32:16.532Z,14.70
2023-02-06T10:35:10.203Z,16.00
2023-02-06T10:38:29.845Z,14.40
2023-02-06T10:41:42.301Z,12.50
2023-02-06T10:44:51.244Z,14.10
2023-02-06T10:47:56.580Z,13.70
2023-02-06T10:50:48.555Z,14.30
2023-02-06T10:53:37.277Z,13.90
2023-02-06T10:56:18.898Z,14.10
2023-02-06T10:59:21.866Z,14.90
2023-02-06T11:02:16.293Z,12.50
2023-02-06T11:05:07.634Z,12.00
2023-02-06T11:07:46.922Z,12.70
2023-02-06T11:10:27.880Z,12.80
2023-02-06T11:13:33.386Z,14.90
2023-02-06T11:16:17.419Z,12.90
2023-02-06T11:18:58.210Z,12.00
2023-02-06T11:21:59.531Z,13.00
2023-02-06T11:24:32.730Z,13.60
2023-02-06T11:27:24.217Z,14.20
2023-02-06T11:29:54.957Z,15.80
2023-02-06T11:32:55.755Z,15.20
2023-02-06T11:35:55.064Z,10.10
2023-02-06T11:38:32.718Z,10.10
2023-02-06T11:41:23.017Z,12.30
2023-02-06T11:44:07.052Z,16.00
2023-02-06T11:46:49.151Z,15.30
2023-02-06T11:49:31.037Z,16.40
2023-02-06T11:52:28.022Z,17.50
2023-02-06T11:55:09.265Z,16.80
2023-02-06T11:58:03.682Z,18.50
2023-02-06T12:00:39.102Z,16.90
2023-02-06T12:04:17.648Z,17.70
2023-02-06T12:07:23.103Z,14.30
2023-02-06T12:09:53.577Z,16.60
2023-02-06T12:12:45.374Z,16.00
2023-02-06T12:15:45.825Z,15.40
2023-02-06T12:18:36.144Z,14.60
2023-02-06T12:21:50.573Z,9.90
2023-02-06T12:24:50.117Z,14.90
2023-02-06T12:27:32.221Z,16.50
2023-02-06T12:30:35.749Z,19.00
2023-02-06T12:33:42.317Z,14.30
2023-02-06T12:36:37.765Z,13.80
2023-02-06T12:39:25.061Z,20.70
2023-02-06T12:42:41.437Z,16.20
2023-02-06T12:45:50.184Z,17.00
2023-02-06T12:48:59.840Z,18.00
2023-02-06T12:51:54.112Z,15.00
2023-02-06T12:54:49.353Z,16.60
2023-02-06T12:57:33.188Z,15.40
2023-02-06T13:00:46.406Z,12.10
2023-02-06T13:03:57.126Z,12.40
2023-02-06T13:06:55.974Z,17.90
2023-02-06T13:09:43.173Z,18.60
2023-02-06T13:15:22.839Z,15.40
2023-02-06T13:17:58.849Z,18.40
2023-02-06T13:20:56.234Z,16.60
2023-02-06T13:23:28.299Z,11.20
2023-02-06T13:25:59.162Z,16.50
2023-02-06T13:28:48.338Z,16.10
2023-02-06T13:31:32.837Z,17.50
2023-02-06T13:34:18.020Z,8.60
2023-02-06T13:36:57.056Z,12.80
2023-02-06T13:39:37.816Z,12.00
2023-02-06T13:42:45.607Z,11.00
2023-02-06T13:45:47.594Z,15.70
2023-02-06T13:49:24.974Z,18.10
2023-02-06T13:53:03.801Z,14.40
2023-02-06T13:56:16.977Z,16.30
2023-02-06T13:59:01.050Z,15.80
2023-02-06T14:01:37.811Z,15.80
2023-02-06T14:04:24.944Z,14.80
2023-02-06T14:07:32.157Z,16.10
2023-02-06T14:10:36.639Z,15.70
2023-02-06T14:13:16.963Z,13.40
2023-02-06T14:16:19.005Z,15.20
2023-02-06T14:19:27.719Z,12.50
2023-02-06T14:22:28.653Z,10.90
2023-02-06T14:25:37.204Z,12.90
2023-02-06T14:28:58.136Z,12.90
2023-02-06T14:32:05.349Z,17.00
2023-02-06T14:35:18.068Z,15.60
2023-02-06T14:38:32.314Z,15.60
2023-02-06T14:41:12.077Z,14.00
2023-02-06T14:43:53.453Z,10.00
2023-02-06T14:46:33.091Z,20.10
2023-02-06T14:49:19.206Z,21.00
2023-02-06T14:51:56.737Z,21.30
2023-02-06T14:54:38.821Z,25.10
2023-02-06T14:57:28.507Z,23.90
2023-02-06T15:00:15.570Z,25.20
2023-02-06T15:03:08.381Z,21.90
2023-02-06T15:05:46.884Z,22.50
2023-02-06T15:08:28.687Z,26.60
2023-02-06T15:11:08.559Z,27.40
2023-02-06T15:13:53.535Z,28.00
2023-02-06T15:16:31.844Z,24.40
2023-02-06T15:19:39.691Z,23.30
2023-02-06T15:22:33.920Z,23.50
2023-02-06T15:25:35.252Z,25.70
2023-02-06T15:28:17.470Z,24.40
2023-02-06T15:31:04.311Z,27.20
2023-02-06T15:33:45.121Z,30.60
2023-02-06T15:36:40.020Z,31.30
2023-02-06T15:39:18.770Z,26.60
2023-02-06T15:41:57.942Z,27.40
2023-02-06T15:44:38.915Z,27.20
2023-02-06T15:47:18.824Z,30.80
2023-02-06T15:50:01.467Z,30.30
2023-02-06T15:52:43.500Z,28.30
2023-02-06T15:55:32.401Z,27.60
2023-02-06T15:58:07.150Z,31.00
2023-02-06T16:00:40.885Z,30.50
2023-02-06T16:03:23.469Z,32.00
2023-02-06T16:06:00.489Z,32.00
2023-02-06T16:08:39.622Z,36.60
2023-02-06T16:11:36.781Z,39.00
2023-02-06T16:14:32.025Z,37.70
2023-02-06T16:17:42.616Z,35.30
2023-02-06T16:20:41.333Z,27.90
2023-02-06T16:23:33.943Z,35.70
2023-02-06T16:26:25.816Z,33.30
2023-02-06T16:29:31.637Z,35.80
2023-02-06T16:32:22.705Z,36.10
2023-02-06T16:35:01.776Z,29.00
2023-02-06T16:37:39.644Z,35.50
2023-02-06T16:40:18.832Z,37.40
2023-02-06T16:42:56.552Z,38.20
2023-02-06T16:45:34.306Z,35.00
2023-02-06T16:48:12.443Z,31.10
2023-02-06T16:50:44.858Z,32.40
2023-02-06T16:53:26.597Z,37.90
2023-02-06T16:56:03.211Z,31.10
2023-02-06T16:58:42.037Z,32.60
2023-02-06T17:01:25.969Z,30.50
2023-02-06T17:04:01.726Z,29.90
2023-02-06T17:06:40.411Z,30.90
2023-02-06T17:09:21.519Z,38.00
2023-02-06T17:11:59.442Z,38.60
2023-02-06T17:14:38.852Z,34.50
2023-02-06T17:17:21.416Z,35.50
2023-02-06T17:20:00.523Z,30.40
2023-02-06T17:22:39.014Z,32.30
2023-02-06T17:25:17.249Z,29.90
2023-02-06T17:27:49.771Z,21.00
2023-02-06T17:30:29.738Z,32.90
2023-02-06T17:33:10.649Z,31.00
2023-02-06T17:35:50.236Z,23.10
2023-02-06T17:38:27.721Z,37.00
2023-02-06T17:41:06.018Z,37.40
2023-02-06T17:43:45.641Z,28.90
2023-02-06T17:46:23.702Z,28.80
2023-02-06T17:49:03.970Z,25.00
2023-02-06T17:51:44.386Z,34.10
2023-02-06T17:54:22.828Z,28.70
2023-02-06T17:57:00.721Z,30.70
2023-02-06T17:59:39.002Z,36.40
2023-02-06T18:02:19.277Z,30.20
2023-02-06T18:04:57.537Z,26.40
2023-02-06T18:07:32.103Z,38.70
2023-02-06T18:12:43.862Z,36.20
2023-02-06T18:15:22.901Z,26.00
2023-02-06T18:18:02.156Z,34.60
2023-02-06T18:20:41.458Z,30.30
2023-02-06T18:23:21.160Z,30.70
2023-02-06T18:26:02.867Z,21.30
2023-02-06T18:28:40.994Z,30.40
2023-02-06T18:31:30.214Z,31.20
2023-02-06T18:34:08.569Z,35.30
2023-02-06T18:36:45.039Z,36.90
2023-02-06T18:39:23.468Z,36.80
2023-02-06T18:42:20.135Z,35.60
2023-02-06T18:44:58.343Z,31.30
2023-02-06T18:47:32.042Z,35.40
2023-02-06T18:50:05.942Z,15.70
2023-02-06T18:52:44.219Z,30.60
2023-02-06T18:55:22.094Z,34.20
2023-02-06T18:57:59.765Z,21.30
2023-02-06T19:00:39.226Z,36.60
2023-02-06T19:03:17.010Z,33.20
2023-02-06T19:05:55.634Z,28.60
2023-02-06T19:08:33.548Z,32.10
2023-02-06T19:11:12.478Z,21.40
2023-02-06T19:13:44.534Z,28.90
2023-02-06T19:16:23.559Z,30.10
2023-02-06T19:19:01.838Z,20.90
2023-02-06T19:21:39.986Z,17.10
2023-02-06T19:24:20.730Z,28.50
2023-02-06T19:26:59.222Z,25.80
2023-02-06T19:29:35.477Z,28.80
2023-02-06T19:32:12.304Z,26.50
2023-02-06T19:34:47.159Z,25.70
2023-02-06T19:37:25.598Z,13.50
2023-02-06T19:40:03.281Z,18.20
2023-02-06T19:42:40.906Z,20.00
2023-02-06T19:45:18.580Z,20.80
2023-02-06T19:47:57.713Z,16.10
2023-02-06T19:50:36.327Z,10.60
2023-02-06T19:53:16.780Z,21.10
2023-02-06T19:55:55.764Z,19.90
2023-02-06T19:58:33.704Z,21.40
2023-02-06T20:01:19.978Z,22.20
2023-02-06T20:03:57.829Z,21.50
2023-02-06T20:06:36.866Z,18.40
2023-02-06T20:09:16.485Z,16.40
2023-02-06T20:11:54.572Z,21.00
2023-02-06T20:14:32.134Z,21.50
2023-02-06T20:17:10.797Z,20.30
2023-02-06T20:19:41.264Z,18.80
2023-02-06T20:22:22.523Z,15.40
2023-02-06T20:25:00.592Z,18.20
2023-02-06T20:27:31.261Z,22.20
2023-02-06T20:30:04.279Z,19.10
2023-02-06T20:32:42.776Z,24.40
2023-02-06T20:35:21.211Z,24.80
2023-02-06T20:37:51.413Z,22.30
2023-02-06T20:40:29.712Z,20.20
2023-02-06T20:43:07.634Z,17.80
2023-02-06T20:45:46.649Z,19.30
2023-02-06T20:48:24.742Z,21.40
2023-02-06T20:51:07.711Z,20.30
2023-02-06T20:53:46.500Z,9.30
2023-02-06T20:56:24.945Z,23.50
2023-02-06T20:59:06.380Z,24.00
2023-02-06T21:01:45.164Z,22.00
2023-02-06T21:04:25.680Z,22.10
2023-02-06T21:07:04.763Z,20.50
2023-02-06T21:09:43.189Z,22.10
2023-02-06T21:12:14.335Z,21.40
2023-02-06T21:14:49.524Z,21.40
2023-02-06T21:17:27.497Z,13.90
2023-02-06T21:20:06.068Z,17.90
2023-02-06T21:22:43.955Z,15.40
2023-02-06T21:25:22.118Z,14.20
2023-02-06T21:27:53.194Z,26.10
2023-02-06T21:30:32.907Z,25.00
2023-02-06T21:33:11.635Z,23.30
2023-02-06T21:35:52.098Z,21.50
2023-02-06T21:38:32.515Z,25.70
2023-02-06T21:41:21.812Z,22.60
2023-02-06T21:43:59.223Z,20.60
2023-02-06T21:46:36.533Z,20.50
2023-02-06T21:49:14.660Z,20.70
2023-02-06T21:51:51.970Z,22.40
2023-02-06T21:54:29.780Z,20.20
2023-02-06T21:57:08.453Z,18.60
2023-02-06T21:59:46.302Z,20.10
2023-02-06T22:02:16.646Z,23.70
2023-02-06T22:04:51.485Z,27.80
2023-02-06T22:07:29.518Z,27.00
2023-02-06T22:10:10.757Z,26.40
2023-02-06T22:12:50.736Z,22.00
2023-02-06T22:15:28.695Z,24.10
2023-02-06T22:18:06.412Z,22.60
2023-02-06T22:20:43.536Z,23.90
2023-02-06T22:23:21.351Z,19.50
2023-02-06T22:25:58.941Z,15.90
2023-02-06T22:28:37.077Z,25.80
2023-02-06T22:31:16.930Z,25.20
2023-02-06T22:33:54.735Z,24.20
2023-02-06T22:36:34.126Z,20.10
2023-02-06T22:39:14.398Z,17.40
2023-02-06T22:41:52.892Z,19.00
2023-02-06T22:44:30.327Z,18.20
2023-02-06T22:47:07.109Z,16.00
2023-02-06T22:49:45.143Z,24.90
2023-02-06T22:52:36.144Z,25.70
2023-02-06T22:55:15.044Z,23.00
2023-02-06T22:57:52.268Z,18.60
2023-02-06T23:00:30.181Z,21.40
2023-02-06T23:03:00.369Z,24.10
2023-02-06T23:05:36.545Z,19.70
2023-02-06T23:08:13.015Z,22.10
2023-02-06T23:10:52.179Z,21.50
2023-02-06T23:13:30.064Z,12.80
2023-02-06T23:16:08.974Z,28.00
2023-02-06T23:18:47.054Z,16.00
2023-02-06T23:21:26.024Z,25.90
2023-02-06T23:24:03.898Z,24.60
2023-02-06T23:26:44.856Z,25.40
2023-02-06T23:29:24.228Z,18.40
2023-02-06T23:32:02.998Z,25.30
2023-02-06T23:34:41.223Z,17.10
2023-02-06T23:37:18.746Z,28.30
2023-02-06T23:39:56.981Z,28.10
2023-02-06T23:42:29.713Z,16.00
2023-02-06T23:45:07.887Z,20.10
2023-02-06T23:47:45.729Z,22.50
2023-02-06T23:50:23.169Z,28.10
2023-02-06T23:52:54.026Z,28.30
2023-02-06T23:55:30.861Z,16.50
2023-02-06T23:58:08.679Z,32.50
